Latest Weather Observations for Wudinna Airport

IDS60801

Issued at 8:01 pm CDT Friday 16 November 2018 (issued every 10 minutes, with the page automatically refreshed every 10 minutes)

About weather observations | Map of weather stations | Latest weather observations for SA | Other Formats
Station Details ID: 018083 Name: WUDINNA AERO Lat: -33.04 Lon: 135.45 Height: 86.4 m
Data from the previous 72 hours. | See also: Recent months at Wudinna Airport
Date/Time
CDT
Temp
°C
App
Temp
°C
Dew
Point
°C
Rel
Hum
%
Delta-T
°C
Wind Press
QNH
hPa
Press
MSL
hPa
Rain since
9am
mm
Dir  Spd
km/h
Gust
km/h
Spd
kts
Gust
kts
16/08:00pm 22.1 16.1 3.3 29 9.0 SE 24 37 13 20 1021.7 1021.4 0.0
16/07:30pm 23.7 17.0 3.6 27 9.8 SE 28 43 15 23 1021.2 1020.9 0.0
16/07:00pm 25.9 19.0 4.4 25 10.8 S 30 37 16 20 1020.5 1020.2 0.0
16/06:30pm 26.5 20.0 4.9 25 11.0 S 28 35 15 19 1020.1 1019.8 0.0
16/06:00pm 27.2 20.7 4.9 24 11.4 S 28 37 15 20 1020.0 1019.7 0.0
16/05:30pm 27.9 21.3 4.2 22 12.0 S 28 43 15 23 1019.9 1019.6 0.0
16/05:00pm 28.5 21.9 4.1 21 12.4 SSW 28 35 15 19 1019.7 1019.4 0.0
16/04:30pm 28.4 22.0 3.3 20 12.6 S 26 39 14 21 1019.7 1019.4 0.0
16/04:00pm 28.7 22.0 3.5 20 12.7 S 28 39 15 21 1019.7 1019.4 0.0
16/03:30pm 28.5 22.5 1.1 17 13.2 S 22 33 12 18 1019.8 1019.5 0.0
16/03:00pm 28.3 21.5 -1.7 14 13.7 S 24 35 13 19 1020.1 1019.8 0.0
16/02:30pm 28.9 22.6 -1.2 14 14.0 S 22 35 12 19 1020.4 1020.1 0.0
16/02:00pm 28.1 22.8 -0.9 15 13.5 S 17 30 9 16 1020.8 1020.5 0.0
16/01:30pm 27.0 21.8 -0.1 17 12.6 SSW 17 30 9 16 1021.3 1021.0 0.0
16/01:00pm 26.9 21.0 -1.9 15 13.0 S 19 28 10 15 1021.7 1021.4 0.0
16/12:30pm 26.2 21.0 0.0 18 12.2 SSW 17 24 9 13 1021.9 1021.6 0.0
16/12:00pm 24.8 19.5 -0.4 19 11.5 SSE 17 28 9 15 1022.1 1021.8 0.0
16/11:30am 25.3 19.9 1.4 21 11.3 SSE 19 26 10 14 1022.4 1022.1 0.0
16/11:00am 23.9 19.8 2.1 24 10.4 SSE 13 19 7 10 1022.5 1022.2 0.0
16/10:30am 22.8 19.7 3.4 28 9.4 SE 9 17 5 9 1022.5 1022.2 0.0
16/10:00am 21.4 18.5 4.5 33 8.3 ESE 9 17 5 9 1022.7 1022.4 0.0
16/09:30am 20.1 17.5 6.1 40 7.0 E 9 13 5 7 1022.7 1022.4 0.0
16/09:00am 18.2 15.1 7.3 49 5.5 E 13 19 7 10 1022.6 1022.3 0.0
16/08:30am 16.2 14.1 8.4 60 4.0 E 9 15 5 8 1022.5 1022.2 0.0
16/08:00am 14.5 12.6 8.9 69 2.9 E 9 13 5 7 1022.4 1022.1 0.0
16/07:30am 10.7 8.8 6.8 77 1.8 NE 6 9 3 5 1022.0 1021.7 0.0
16/07:00am 7.0 4.5 3.8 80 1.4 NE 6 7 3 4 1022.1 1021.8 0.0
16/06:30am 5.4 3.9 2.9 84 1.0 CALM 0 0 0 0 1021.7 1021.4 0.0
16/06:00am 5.6 3.4 3.1 84 1.0 NE 4 6 2 3 1021.3 1021.0 0.0
16/05:30am 5.9 3.3 3.4 84 1.0 NE 6 7 3 4 1020.9 1020.6 0.0
16/05:00am 5.8 2.6 3.1 83 1.1 NE 9 13 5 7 1020.7 1020.4 0.0
16/04:30am 6.8 4.3 3.9 82 1.2 E 6 7 3 4 1020.9 1020.6 0.0
16/04:00am 6.7 4.0 3.5 80 1.4 E 7 7 4 4 1020.8 1020.5 0.0
16/03:30am 7.7 5.3 4.1 78 1.6 ESE 6 7 3 4 1021.0 1020.7 0.0
16/03:00am 8.8 7.7 5.0 77 1.7 CALM 0 4 0 2 1021.1 1020.8 0.0
16/02:30am 9.0 6.5 4.8 75 1.9 ESE 7 7 4 4 1021.2 1020.9 0.0
16/02:00am 9.2 7.2 4.2 71 2.2 ESE 4 7 2 4 1021.7 1021.4 0.0
16/01:30am 10.4 9.3 5.0 69 2.4 CALM 0 0 0 0 1022.0 1021.7 0.0
16/01:00am 12.9 10.8 6.7 66 3.0 ESE 7 9 4 5 1022.3 1022.0 0.0
16/12:30am 13.6 11.2 6.9 64 3.2 ESE 9 13 5 7 1022.4 1022.1 0.0
16/12:00am 14.0 11.1 6.4 60 3.7 SE 11 17 6 9 1022.4 1022.1 0.0
 
Date/Time
CDT
Temp
°C
App
Temp
°C
Dew
Point
°C
Rel
Hum
%
Delta-T
°C
Wind Press
QNH
hPa
Press
MSL
hPa
Rain since
9am
mm
Dir  Spd
km/h
Gust
km/h
Spd
kts
Gust
kts
15/11:30pm 14.8 11.1 6.1 56 4.2 SE 15 20 8 11 1022.5 1022.2 0.0
15/11:00pm 15.6 11.7 5.5 51 4.8 SE 15 19 8 10 1022.5 1022.2 0.0
15/10:30pm 16.6 12.8 5.9 49 5.2 ESE 15 20 8 11 1022.6 1022.3 0.0
15/10:00pm 17.7 14.2 5.6 45 5.9 SE 13 24 7 13 1022.4 1022.1 0.0
15/09:30pm 18.3 15.4 6.5 46 5.9 SSE 11 17 6 9 1022.2 1021.9 0.0
15/09:00pm 19.0 15.2 7.4 47 5.9 S 17 24 9 13 1021.7 1021.4 0.0
15/08:30pm 19.9 15.1 7.3 44 6.4 S 22 28 12 15 1021.4 1021.1 0.0
15/08:00pm 21.2 15.9 6.7 39 7.4 S 24 32 13 17 1021.1 1020.8 0.0
15/07:30pm 22.8 16.6 6.1 34 8.5 S 28 37 15 20 1020.7 1020.4 0.0
15/07:00pm 24.2 17.2 6.0 31 9.3 SSW 32 41 17 22 1020.3 1020.0 0.0
15/06:30pm 25.6 21.0 5.8 28 10.2 S 19 43 10 23 1020.2 1019.9 0.0
15/06:00pm 26.7 22.0 1.2 19 12.2 S 15 20 8 11 1020.2 1019.9 0.0
15/05:30pm 26.7 23.3 1.9 20 12.0 S 9 22 5 12 1020.3 1020.0 0.0
15/05:00pm 27.4 24.0 1.8 19 12.4 SE 9 17 5 9 1020.4 1020.1 0.0
15/04:30pm 26.8 22.3 2.0 20 12.0 SSE 15 24 8 13 1020.6 1020.3 0.0
15/04:00pm 26.8 20.9 2.0 20 12.0 S 22 32 12 17 1020.8 1020.5 0.0
15/03:30pm 25.9 21.0 1.9 21 11.5 SSE 17 28 9 15 1021.2 1020.9 0.0
15/03:00pm 25.6 22.0 2.9 23 11.1 SE 11 20 6 11 1021.7 1021.4 0.0
15/02:30pm 26.1 22.6 3.4 23 11.2 SSE 11 22 6 12 1022.2 1021.9 0.0
15/02:00pm 24.4 21.4 4.2 27 10.0 SE 9 17 5 9 1022.5 1022.2 0.0
15/01:30pm 23.4 19.2 3.9 28 9.5 SSE 15 24 8 13 1023.0 1022.7 0.0
15/01:00pm 23.1 18.7 4.6 30 9.2 S 17 28 9 15 1023.3 1023.0 0.0
15/12:30pm 22.4 19.1 4.5 31 8.8 E 11 20 6 11 1023.9 1023.6 0.0
15/12:00pm 22.4 18.5 5.4 33 8.5 SSE 15 24 8 13 1024.2 1023.9 0.0
15/11:30am 20.3 16.8 5.5 38 7.3 SE 13 24 7 13 1024.4 1024.1 0.0
15/11:00am 19.8 15.7 6.2 41 6.8 SE 17 28 9 15 1024.5 1024.2 0.0
15/10:30am 19.3 15.4 7.1 45 6.2 SE 17 26 9 14 1024.7 1024.4 0.0
15/10:00am 18.2 13.8 7.6 50 5.4 SE 20 28 11 15 1024.8 1024.5 0.0
15/09:30am 17.0 12.6 7.4 53 4.8 SE 20 33 11 18 1024.9 1024.6 0.0
15/09:00am 16.2 13.2 7.9 58 4.2 ESE 13 26 7 14 1025.0 1024.7 0.0
15/08:30am 13.5 10.7 7.1 65 3.1 SE 11 15 6 8 1024.8 1024.5 0.0
15/08:00am 12.2 9.7 6.5 68 2.7 SE 9 13 5 7 1024.4 1024.1 0.0
15/07:30am 10.1 8.7 5.7 74 2.0 SSE 2 7 1 4 1024.4 1024.1 0.0
15/07:00am 7.2 5.9 4.2 81 1.3 CALM 0 0 0 0 1024.3 1024.0 0.0
15/06:30am 6.0 3.5 3.5 84 1.0 SE 6 7 3 4 1024.1 1023.8 0.0
15/06:00am 5.7 4.2 3.2 84 1.0 CALM 0 0 0 0 1023.8 1023.5 0.0
15/05:30am 4.8 3.1 1.8 81 1.2 CALM 0 0 0 0 1023.6 1023.3 0.0
15/05:00am 5.3 3.7 2.3 81 1.2 CALM 0 0 0 0 1023.2 1022.9 0.0
15/04:30am 5.8 4.2 2.3 78 1.4 CALM 0 0 0 0 1023.0 1022.7 0.0
15/04:00am 6.8 5.3 3.2 78 1.5 CALM 0 0 0 0 1022.9 1022.6 0.0
15/03:30am 8.1 6.8 3.9 75 1.8 CALM 0 6 0 3 1022.6 1022.3 0.0
15/03:00am 10.2 7.8 5.2 71 2.3 SE 7 9 4 5 1022.7 1022.4 0.0
15/02:30am 10.7 8.4 5.5 70 2.4 SE 7 9 4 5 1022.7 1022.4 0.0
15/02:00am 11.4 8.8 5.9 69 2.6 SSE 9 13 5 7 1022.9 1022.6 0.0
15/01:30am 11.8 9.2 6.1 68 2.7 SE 9 11 5 6 1023.0 1022.7 0.0
15/01:00am 12.3 9.3 6.1 66 2.9 SE 11 13 6 7 1023.1 1022.8 0.0
15/12:30am 12.7 9.7 6.1 64 3.1 SE 11 13 6 7 1023.2 1022.9 0.0
15/12:00am 13.4 10.5 6.3 62 3.4 SE 11 13 6 7 1023.3 1023.0 0.0
 
Date/Time
CDT
Temp
°C
App
Temp
°C
Dew
Point
°C
Rel
Hum
%
Delta-T
°C
Wind Press
QNH
hPa
Press
MSL
hPa
Rain since
9am
mm
Dir  Spd
km/h
Gust
km/h
Spd
kts
Gust
kts
14/11:30pm 13.8 10.9 6.4 61 3.5 SE 11 15 6 8 1023.4 1023.1 0.0
14/11:00pm 14.3 11.4 6.6 60 3.7 SE 11 13 6 7 1023.3 1023.0 0.0
14/10:30pm 14.9 12.2 7.2 60 3.8 SSE 11 13 6 7 1023.1 1022.8 0.0
14/10:00pm 15.5 12.1 7.5 59 4.0 SSE 15 19 8 10 1023.0 1022.7 0.0
14/09:30pm 16.3 11.7 8.0 58 4.2 SSW 22 28 12 15 1022.4 1022.1 0.0
14/09:00pm 17.0 12.5 8.7 58 4.3 SSW 22 30 12 16 1021.9 1021.6 0.0
14/08:30pm 17.9 12.9 8.2 53 5.0 SSW 24 32 13 17 1021.5 1021.2 0.0
14/08:00pm 19.0 14.0 8.1 49 5.6 SSW 24 30 13 16 1021.0 1020.7 0.0
14/07:30pm 20.0 14.8 8.7 48 5.9 SSW 26 37 14 20 1020.6 1020.3 0.0
14/07:00pm 20.9 15.4 9.2 47 6.2 SSW 28 33 15 18 1020.2 1019.9 0.0
14/06:30pm 21.6 16.4 8.8 44 6.8 SSW 26 35 14 19 1019.9 1019.6 0.0
14/06:00pm 22.0 16.8 8.9 43 7.0 SW 26 33 14 18 1019.8 1019.5 0.0
14/05:30pm 22.7 17.7 9.5 43 7.1 SW 26 33 14 18 1019.8 1019.5 0.0
14/05:00pm 23.5 19.3 9.9 42 7.5 SW 22 30 12 16 1019.6 1019.3 0.0
14/04:30pm 22.7 16.9 9.5 43 7.1 SW 30 39 16 21 1019.5 1019.2 0.0
14/04:00pm 23.2 18.4 8.9 40 7.7 SSW 24 32 13 17 1019.3 1019.0 0.0
14/03:30pm 23.6 19.3 7.7 36 8.4 SW 20 30 11 16 1019.3 1019.0 0.0
14/03:00pm 24.1 20.8 8.1 36 8.5 SW 15 24 8 13 1019.4 1019.1 0.0
14/02:30pm 22.7 19.4 8.0 39 7.7 SW 15 28 8 15 1019.6 1019.3 0.0
14/02:00pm 23.0 19.6 9.0 41 7.5 WSW 17 28 9 15 1019.8 1019.5 0.0
14/01:30pm 21.7 18.2 8.6 43 6.9 SW 17 24 9 13 1020.1 1019.8 0.0
14/01:00pm 20.8 17.5 9.4 48 6.1 SW 17 22 9 12 1020.4 1020.1 0.0
14/12:30pm 19.4 15.9 10.1 55 5.0 SSW 19 26 10 14 1020.6 1020.3 0.0
14/12:00pm 19.2 15.9 9.7 54 5.0 SSW 17 24 9 13 1020.5 1020.2 0.0
14/11:30am 18.6 16.1 9.7 56 4.7 SW 13 20 7 11 1020.5 1020.2 0.0
14/11:00am 18.2 16.1 9.8 58 4.5 SSW 11 17 6 9 1020.3 1020.0 0.0
14/10:30am 17.0 14.4 9.4 61 4.0 SSW 13 20 7 11 1020.1 1019.8 0.0
14/10:00am 16.3 14.2 9.7 65 3.5 S 11 19 6 10 1020.2 1019.9 0.0
14/09:30am 16.4 13.5 9.6 64 3.5 SSW 15 20 8 11 1020.1 1019.8 0.0
14/09:00am 16.1 13.2 9.5 65 3.4 S 15 22 8 12 1019.7 1019.4 0.0
14/08:30am 15.7 12.5 9.8 68 3.1 S 17 24 9 13 1019.3 1019.0 0.0
14/08:00am 15.6 13.2 10.2 70 2.8 SSW 13 15 7 8 1018.8 1018.6 0.0
14/07:30am 15.2 13.2 10.2 72 2.6 SSW 11 17 6 9 1018.5 1018.3 0.0
14/07:00am 14.4 12.2 10.8 79 1.9 S 13 17 7 9 1018.2 1018.0 0.0
14/06:30am 14.4 11.4 10.8 79 1.9 SSW 17 20 9 11 1017.9 1017.7 0.0
14/06:00am 15.0 11.5 10.2 73 2.5 S 19 22 10 12 1017.5 1017.3 0.0
14/05:30am 15.3 12.7 9.4 68 3.0 S 13 20 7 11 1017.2 1017.0 0.0
14/05:00am 15.3 12.4 9.7 69 2.9 SSW 15 19 8 10 1017.1 1016.9 0.0
14/04:30am 15.3 12.0 9.7 69 2.9 S 17 22 9 12 1017.0 1016.8 0.0
14/04:00am 15.3 12.4 9.7 69 2.9 S 15 19 8 10 1016.7 1016.5 0.0
14/03:30am 15.3 12.0 9.7 69 2.9 S 17 20 9 11 1016.5 1016.3 0.0
14/03:00am 15.4 12.9 9.7 69 3.0 S 13 19 7 10 1016.4 1016.2 0.0
14/02:30am 15.5 12.6 9.8 69 3.0 S 15 17 8 9 1016.4 1016.2 0.0
14/02:00am 15.4 13.4 10.2 71 2.7 SSW 11 17 6 9 1016.7 1016.5 0.0
14/01:30am 15.0 13.3 10.0 72 2.6 SW 9 11 5 6 1017.0 1016.8 0.0
14/01:00am 14.3 13.6 9.9 75 2.3 WSW 4 9 2 5 1017.1 1016.9 0.0
14/12:30am 13.3 12.8 9.4 77 2.0 WSW 2 6 1 3 1017.1 1016.9 0.0
14/12:00am 13.1 11.7 8.8 75 2.2 SW 6 6 3 3 1017.2 1017.0 0.0
 
Date/Time
CDT
Temp
°C
App
Temp
°C
Dew
Point
°C
Rel
Hum
%
Delta-T
°C
Wind Press
QNH
hPa
Press
MSL
hPa
Rain since
9am
mm
Dir  Spd
km/h
Gust
km/h
Spd
kts
Gust
kts
13/11:30pm 13.1 11.2 9.2 77 2.0 SSW 9 13 5 7 1017.2 1017.0 0.0
13/11:00pm 13.0 11.1 8.9 76 2.1 SSW 9 13 5 7 1017.2 1017.0 0.0
13/10:30pm 13.5 11.5 8.8 73 2.4 SSW 9 11 5 6 1016.9 1016.7 0.0
13/10:00pm 14.7 12.0 9.1 69 2.9 SW 13 17 7 9 1016.8 1016.6 0.0
13/09:30pm 15.5 11.5 9.2 66 3.2 SSW 20 26 11 14 1016.5 1016.3 0.0
13/09:00pm 16.0 12.0 9.2 64 3.5 SSW 20 28 11 15 1016.1 1015.9 0.0
13/08:30pm 16.6 11.9 9.3 62 3.8 S 24 33 13 18 1015.8 1015.6 0.0

Other Formats:

Comma delimited format used in spreadsheet applications
http://www.bom.gov.au/fwo/IDS60801/IDS60801.95654.axf

JavaScript Object Notation format (JSON) in row-major order
http://www.bom.gov.au/fwo/IDS60801/IDS60801.95654.json